createdAt,value
2022-11-13T00:04:20.842Z,6.08
2022-11-13T00:09:42.544Z,6.00
2022-11-13T00:15:03.981Z,5.87
2022-11-13T00:20:26.708Z,5.82
2022-11-13T00:25:47.738Z,5.82
2022-11-13T00:31:13.827Z,5.88
2022-11-13T00:36:36.361Z,5.92
2022-11-13T00:41:57.979Z,5.82
2022-11-13T00:47:19.443Z,5.82
2022-11-13T00:52:42.076Z,5.76
2022-11-13T00:58:07.260Z,5.68
2022-11-13T01:03:28.774Z,5.67
2022-11-13T01:08:51.690Z,5.71
2022-11-13T01:14:12.914Z,5.74
2022-11-13T01:19:34.312Z,5.65
2022-11-13T01:24:57.160Z,5.60
2022-11-13T01:30:18.892Z,5.51
2022-11-13T01:35:40.153Z,5.46
2022-11-13T01:41:02.914Z,5.43
2022-11-13T01:46:27.526Z,5.42
2022-11-13T01:51:50.777Z,5.44
2022-11-13T01:57:14.566Z,5.48
2022-11-13T02:02:36.670Z,5.38
2022-11-13T02:07:57.823Z,5.36
2022-11-13T02:13:21.080Z,5.26
2022-11-13T02:18:42.545Z,5.21
2022-11-13T02:24:17.981Z,5.10
2022-11-13T02:29:39.384Z,5.07
2022-11-13T02:35:00.770Z,5.06
2022-11-13T02:40:24.964Z,5.05
2022-11-13T02:45:46.247Z,4.89
2022-11-13T02:51:07.853Z,4.74
2022-11-13T02:56:30.848Z,4.73
2022-11-13T03:01:52.488Z,4.78
2022-11-13T03:07:13.991Z,4.75
2022-11-13T03:12:36.971Z,4.75
2022-11-13T03:17:58.078Z,4.75
2022-11-13T03:23:19.506Z,4.70
2022-11-13T03:28:42.214Z,4.78
2022-11-13T03:34:04.092Z,4.79
2022-11-13T03:39:25.654Z,4.72
2022-11-13T03:44:48.417Z,4.66
2022-11-13T03:50:10.511Z,4.54
2022-11-13T03:55:31.959Z,4.55
2022-11-13T04:00:55.136Z,4.56
2022-11-13T04:06:17.475Z,4.51
2022-11-13T04:11:38.847Z,4.50
2022-11-13T04:17:02.597Z,4.46
2022-11-13T04:22:24.116Z,4.46
2022-11-13T04:27:45.425Z,4.42
2022-11-13T04:33:08.233Z,4.37
2022-11-13T04:38:30.145Z,4.36
2022-11-13T04:43:51.607Z,4.33
2022-11-13T04:49:14.359Z,4.34
2022-11-13T04:54:36.364Z,4.32
2022-11-13T04:59:57.874Z,4.22
2022-11-13T05:05:20.683Z,4.20
2022-11-13T05:10:42.601Z,4.26
2022-11-13T05:16:04.829Z,4.25
2022-11-13T05:21:27.501Z,4.09
2022-11-13T05:26:48.892Z,3.96
2022-11-13T05:32:12.646Z,4.02
2022-11-13T05:37:35.206Z,3.91
2022-11-13T05:42:56.844Z,3.94
2022-11-13T05:48:18.283Z,4.01
2022-11-13T05:53:41.211Z,4.10
2022-11-13T05:59:03.298Z,4.07
2022-11-13T06:04:24.413Z,4.00
2022-11-13T06:09:47.261Z,3.98
2022-11-13T06:15:09.344Z,3.96
2022-11-13T06:20:30.577Z,4.01
2022-11-13T06:25:53.350Z,3.97
2022-11-13T06:31:17.413Z,3.96
2022-11-13T06:36:38.951Z,3.96
2022-11-13T06:42:02.498Z,4.00
2022-11-13T06:47:23.396Z,4.04
2022-11-13T06:52:44.696Z,4.06
2022-11-13T06:58:07.392Z,4.12
2022-11-13T07:03:28.890Z,4.15
2022-11-13T07:08:50.489Z,4.13
2022-11-13T07:14:13.410Z,4.08
2022-11-13T07:19:34.778Z,4.00
2022-11-13T07:24:56.140Z,4.07
2022-11-13T07:30:19.637Z,4.19
2022-11-13T07:35:41.022Z,4.08
2022-11-13T07:41:02.413Z,4.26
2022-11-13T07:46:25.182Z,4.23
2022-11-13T07:51:46.708Z,4.28
2022-11-13T07:57:08.058Z,4.33
2022-11-13T08:02:30.815Z,4.40
2022-11-13T08:07:53.154Z,4.51
2022-11-13T08:13:14.598Z,4.62
2022-11-13T08:18:37.634Z,4.74
2022-11-13T08:23:58.712Z,4.81
2022-11-13T08:29:20.196Z,4.91
2022-11-13T08:34:43.392Z,5.00
2022-11-13T08:40:05.569Z,5.09
2022-11-13T08:45:27.157Z,5.18
2022-11-13T08:50:52.418Z,5.18
2022-11-13T08:56:13.607Z,5.09
2022-11-13T09:01:34.945Z,5.24
2022-11-13T09:06:57.631Z,5.46
2022-11-13T09:12:19.091Z,5.58
2022-11-13T09:17:40.710Z,5.61
2022-11-13T09:23:05.790Z,5.55
2022-11-13T09:28:27.703Z,5.54
2022-11-13T09:33:49.304Z,5.59
2022-11-13T09:39:12.346Z,5.62
2022-11-13T09:44:44.943Z,5.65
2022-11-13T09:50:12.379Z,5.76
2022-11-13T09:55:41.306Z,5.58
2022-11-13T10:01:02.518Z,5.51
2022-11-13T10:06:28.565Z,5.58
2022-11-13T10:11:54.424Z,5.59
2022-11-13T10:17:20.291Z,5.55
2022-11-13T10:22:44.264Z,5.71
2022-11-13T10:28:43.251Z,5.83
2022-11-13T10:33:56.402Z,5.90
2022-11-13T10:39:17.805Z,5.87
2022-11-13T10:44:41.402Z,5.88
2022-11-13T10:50:10.619Z,6.02
2022-11-13T10:55:39.063Z,6.10
2022-11-13T11:01:01.584Z,6.31
2022-11-13T11:06:56.710Z,6.24
2022-11-13T11:12:19.661Z,6.49
2022-11-13T11:17:46.600Z,6.47
2022-11-13T11:23:23.892Z,6.25
2022-11-13T11:28:47.903Z,6.12
2022-11-13T11:34:17.829Z,6.09
2022-11-13T11:39:42.174Z,6.18
2022-11-13T11:45:11.029Z,6.28
2022-11-13T11:50:38.876Z,6.59
2022-11-13T11:56:23.504Z,7.04
2022-11-13T12:02:10.005Z,6.88
2022-11-13T12:07:40.880Z,6.58
2022-11-13T12:13:14.371Z,6.41
2022-11-13T12:18:44.279Z,6.88
2022-11-13T12:24:23.982Z,7.94
2022-11-13T12:29:54.630Z,8.67
2022-11-13T12:35:19.157Z,9.07
2022-11-13T12:40:49.319Z,9.06
2022-11-13T12:46:11.903Z,8.86
2022-11-13T12:51:39.549Z,8.84
2022-11-13T12:57:17.347Z,8.97
2022-11-13T13:02:46.632Z,9.21
2022-11-13T13:08:31.795Z,9.51
2022-11-13T13:14:09.094Z,9.52
2022-11-13T13:19:32.012Z,9.40
2022-11-13T13:25:00.607Z,9.11
2022-11-13T13:30:25.229Z,8.88
2022-11-13T13:35:53.235Z,8.63
2022-11-13T13:41:24.283Z,8.52
2022-11-13T13:46:46.993Z,8.37
2022-11-13T13:52:08.297Z,8.22
2022-11-13T13:57:30.337Z,8.18
2022-11-13T14:02:54.173Z,8.13
2022-11-13T14:08:18.560Z,8.10
2022-11-13T14:13:41.862Z,8.15
2022-11-13T14:19:07.508Z,8.20
2022-11-13T14:24:33.800Z,8.15
2022-11-13T14:29:57.513Z,8.16
2022-11-13T14:35:22.339Z,8.15
2022-11-13T14:40:47.913Z,8.16
2022-11-13T14:46:31.355Z,8.18
2022-11-13T14:51:57.505Z,8.16
2022-11-13T14:57:18.784Z,8.17
2022-11-13T15:02:40.092Z,8.14
2022-11-13T15:08:02.880Z,8.13
2022-11-13T15:13:24.525Z,8.08
2022-11-13T15:18:48.117Z,8.02
2022-11-13T15:24:19.630Z,7.95
2022-11-13T15:29:40.831Z,7.86
2022-11-13T15:35:02.531Z,7.76
2022-11-13T15:40:25.056Z,7.70
2022-11-13T15:45:46.636Z,7.62
2022-11-13T15:51:16.423Z,7.54
2022-11-13T15:56:39.454Z,7.49
2022-11-13T16:02:00.676Z,7.45
2022-11-13T16:07:27.381Z,7.40
2022-11-13T16:12:50.257Z,7.38
2022-11-13T16:18:20.834Z,7.40
2022-11-13T16:23:42.518Z,7.37
2022-11-13T16:29:16.707Z,7.36
2022-11-13T16:34:39.459Z,7.37
2022-11-13T16:40:00.839Z,7.36
2022-11-13T16:45:23.890Z,7.34
2022-11-13T16:50:45.572Z,7.34
2022-11-13T16:56:12.849Z,7.36
2022-11-13T17:01:35.756Z,7.31
2022-11-13T17:06:58.066Z,7.28
2022-11-13T17:12:22.870Z,7.25
2022-11-13T17:17:45.515Z,7.23
2022-11-13T17:23:06.931Z,7.15
2022-11-13T17:28:28.437Z,7.14
2022-11-13T17:33:53.500Z,7.11
2022-11-13T17:39:14.984Z,7.06
2022-11-13T17:44:36.376Z,7.04
2022-11-13T17:50:03.906Z,7.03
2022-11-13T17:55:28.165Z,6.96
2022-11-13T18:00:49.888Z,6.90
2022-11-13T18:06:18.613Z,6.93
2022-11-13T18:11:40.900Z,6.89
2022-11-13T18:17:02.479Z,6.84
2022-11-13T18:22:25.147Z,6.80
2022-11-13T18:27:46.517Z,6.76
2022-11-13T18:33:08.198Z,6.76
2022-11-13T18:38:31.237Z,6.74
2022-11-13T18:43:52.955Z,6.69
2022-11-13T18:49:14.624Z,6.68
2022-11-13T18:54:37.264Z,6.64
2022-11-13T18:59:58.828Z,6.58
2022-11-13T19:05:20.165Z,6.56
2022-11-13T19:10:43.184Z,6.52
2022-11-13T19:16:06.019Z,6.48
2022-11-13T19:21:29.780Z,6.49
2022-11-13T19:26:52.694Z,6.43
2022-11-13T19:32:14.067Z,6.40
2022-11-13T19:37:35.427Z,6.41
2022-11-13T19:42:58.317Z,6.43
2022-11-13T19:48:19.665Z,6.40
2022-11-13T19:53:45.975Z,6.35
2022-11-13T19:59:10.934Z,6.34
2022-11-13T20:04:32.461Z,6.32
2022-11-13T20:09:53.887Z,6.30
2022-11-13T20:15:17.089Z,6.28
2022-11-13T20:20:38.655Z,6.28
2022-11-13T20:26:01.815Z,6.25
2022-11-13T20:31:25.775Z,6.20
2022-11-13T20:36:47.063Z,6.17
2022-11-13T20:42:08.543Z,6.14
2022-11-13T20:47:31.328Z,6.15
2022-11-13T20:52:52.674Z,6.15
2022-11-13T20:58:14.289Z,6.13
2022-11-13T21:03:41.370Z,6.14
2022-11-13T21:09:03.617Z,6.15
2022-11-13T21:14:24.867Z,6.17
2022-11-13T21:19:47.692Z,6.22
2022-11-13T21:25:09.526Z,6.18
2022-11-13T21:30:30.707Z,6.16
2022-11-13T21:35:53.451Z,6.12
2022-11-13T21:41:25.544Z,6.04
2022-11-13T21:46:47.146Z,5.96
2022-11-13T21:52:09.904Z,5.92
2022-11-13T21:57:31.423Z,5.89
2022-11-13T22:02:52.742Z,5.86
2022-11-13T22:08:15.724Z,5.85
2022-11-13T22:13:37.115Z,5.82
2022-11-13T22:19:00.484Z,5.76
2022-11-13T22:24:23.012Z,5.71
2022-11-13T22:29:44.241Z,5.63
2022-11-13T22:35:06.567Z,5.60
2022-11-13T22:40:29.020Z,5.62
2022-11-13T22:45:50.418Z,5.62
2022-11-13T22:51:13.684Z,5.59
2022-11-13T22:56:37.053Z,5.54
2022-11-13T23:01:58.110Z,5.51
2022-11-13T23:07:19.766Z,5.45
2022-11-13T23:12:42.870Z,5.44
2022-11-13T23:18:09.537Z,5.42
2022-11-13T23:23:31.216Z,5.45
2022-11-13T23:28:53.984Z,5.41
2022-11-13T23:34:22.886Z,5.41
2022-11-13T23:39:56.351Z,5.40
2022-11-13T23:45:19.162Z,5.37
2022-11-13T23:50:40.275Z,5.37
2022-11-13T23:56:01.897Z,5.34
